Flood From: 24-02-2018 06:00 Until: 25-02-2018 06:00 warning for: Flood Level: Yellow info button

Although rather usual in this region, locally or potentially dangerous phenomena are expected. (such as local winds, summer thunderstorms, rising streams or high waves) Be aware and pay attention to the latest weather updates, especially if you carry out activities exposed to weather or close to a stream or shoreline. 


Meteo18 Weather Cam more information Meteo18 Weather Cam


Thunder radar more information blitzortung!


Rain radar more information rain snow radar


Visit our other weather sites:

Template documentation
and downloads

And another site



Weather Underground History page Text

Daily Summary for September 13, 2017 Units:  Both    English   Metric
« Previous Day
Next Day »
Daily Weekly Monthly Yearly Custom
  High: Low: Average:
Temperature: TemperatureC °F /  -17.8 °C 12.4 °F /  -10.9 °C 17.3 °F /  -8.2 °C
Dew Point: DewpointC °F /  -17.8 °C 9.1 °F /  -12.7 °C 14.4 °F /  -9.8 °C
Humidity: Humidity % 66 % 83 %
Wind Speed: WindSpeedKMH mph /  0 km/h - 18.9 mph /  30.4 km/h
Wind Gust: WindSpeedGustKMH mph /  0 km/h - -
Wind:- - SW
Pressure: PressurehPa in /  0 hPa 1011.4 in /  34246 hPa -
Precipitation: 3.8 in /  96.52 mm    
Historical Graphs
 
 
Tabular Data for September 13, 2017
Time Temperature Dew Point Pressure Wind Wind Speed Wind Gust Humidity Rainfall Rate (Hourly)
TemperatureC °F /  -17.8 °C DewpointC °F /  -17.8 °C PressurehPa in /  0 hPa Calm     Humidity % HourlyPrecipMM in /  0 mm
00:02 12.5 °F /  -10.8 °C 9.1 °F /  -12.7 °C 1016.5 in /  34418.7 hPa SW 9.7 mph /  15.6 km/h 12.9 mph /  20.8 km/h 80 % 0.0 in /  0 mm
00:07 12.4 °F /  -10.9 °C 9.2 °F /  -12.7 °C 1016.8 in /  34428.8 hPa SW 6.4 mph /  10.3 km/h 14.5 mph /  23.3 km/h 81 % 0.0 in /  0 mm
00:12 12.4 °F /  -10.9 °C 9.4 °F /  -12.6 °C 1016.8 in /  34428.8 hPa SSW 3.2 mph /  5.1 km/h 14.5 mph /  23.3 km/h 82 % 0.0 in /  0 mm
00:17 12.5 °F /  -10.8 °C 9.5 °F /  -12.5 °C 1016.5 in /  34418.7 hPa SSW 9.7 mph /  15.6 km/h 14.5 mph /  23.3 km/h 82 % 0.0 in /  0 mm
00:22 12.6 °F /  -10.8 °C 9.6 °F /  -12.4 °C 1016.5 in /  34418.7 hPa SSW 9.7 mph /  15.6 km/h 12.9 mph /  20.8 km/h 82 % 0.0 in /  0 mm
00:27 12.6 °F /  -10.8 °C 9.6 °F /  -12.4 °C 1016.5 in /  34418.7 hPa SW 11.3 mph /  18.2 km/h 12.9 mph /  20.8 km/h 82 % 0.0 in /  0 mm
00:32 12.6 °F /  -10.8 °C 9.6 °F /  -12.4 °C 1016.5 in /  34418.7 hPa WSW 6.4 mph /  10.3 km/h 12.9 mph /  20.8 km/h 82 % 0.0 in /  0 mm
00:37 12.7 °F /  -10.7 °C 9.7 °F /  -12.4 °C 1016.5 in /  34418.7 hPa SW 4.8 mph /  7.7 km/h 12.9 mph /  20.8 km/h 82 % 0.0 in /  0 mm
00:42 12.7 °F /  -10.7 °C 9.7 °F /  -12.4 °C 1016.5 in /  34418.7 hPa SSE 9.7 mph /  15.6 km/h 14.5 mph /  23.3 km/h 82 % 0.0 in /  0 mm
00:52 12.7 °F /  -10.7 °C 9.7 °F /  -12.4 °C 1016.5 in /  34418.7 hPa SW 6.4 mph /  10.3 km/h 17.7 mph /  28.5 km/h 82 % 0.0 in /  0 mm
00:57 12.8 °F /  -10.7 °C 9.8 °F /  -12.3 °C 1016.5 in /  34418.7 hPa SW 11.3 mph /  18.2 km/h 19.3 mph /  31.1 km/h 82 % 0.0 in /  0 mm
01:02 12.9 °F /  -10.6 °C 9.9 °F /  -12.3 °C 1016.1 in /  34405.1 hPa SW 14.5 mph /  23.3 km/h 19.3 mph /  31.1 km/h 82 % 0.0 in /  0 mm
01:07 12.9 °F /  -10.6 °C 9.9 °F /  -12.3 °C 1016.1 in /  34405.1 hPa SW 8.0 mph /  12.9 km/h 20.9 mph /  33.6 km/h 82 % 0.0 in /  0 mm
01:12 13.0 °F /  -10.6 °C 10.0 °F /  -12.2 °C 1016.1 in /  34405.1 hPa South 9.7 mph /  15.6 km/h 20.9 mph /  33.6 km/h 82 % 0.0 in /  0 mm
01:17 13.1 °F /  -10.5 °C 9.9 °F /  -12.3 °C 1016.1 in /  34405.1 hPa SW 6.4 mph /  10.3 km/h 22.5 mph /  36.2 km/h 81 % 0.0 in /  0 mm
01:22 13.1 °F /  -10.5 °C 9.9 °F /  -12.3 °C 1016.1 in /  34405.1 hPa SW 11.3 mph /  18.2 km/h 22.5 mph /  36.2 km/h 81 % 0.0 in /  0 mm
01:27 13.2 °F /  -10.4 °C 10.0 °F /  -12.2 °C 1016.1 in /  34405.1 hPa SW 8.0 mph /  12.9 km/h 24.1 mph /  38.8 km/h 81 % 0.0 in /  0 mm
01:32 13.2 °F /  -10.4 °C 10.0 °F /  -12.2 °C 1015.8 in /  34395 hPa WSW 11.3 mph /  18.2 km/h 24.1 mph /  38.8 km/h 81 % 0.0 in /  0 mm
01:37 13.3 °F /  -10.4 °C 10.1 °F /  -12.2 °C 1015.8 in /  34395 hPa SSW 9.7 mph /  15.6 km/h 24.1 mph /  38.8 km/h 81 % 0.0 in /  0 mm
01:42 13.4 °F /  -10.3 °C 10.0 °F /  -12.2 °C 1015.8 in /  34395 hPa SSW 8.0 mph /  12.9 km/h 20.9 mph /  33.6 km/h 80 % 0.0 in /  0 mm
01:47 13.5 °F /  -10.3 °C 10.1 °F /  -12.2 °C 1015.8 in /  34395 hPa SW 14.5 mph /  23.3 km/h 22.5 mph /  36.2 km/h 80 % 0.0 in /  0 mm
01:52 13.6 °F /  -10.2 °C 10.2 °F /  -12.1 °C 1015.8 in /  34395 hPa South 12.9 mph /  20.8 km/h 27.4 mph /  44.1 km/h 80 % 0.0 in /  0 mm
01:57 13.6 °F /  -10.2 °C 10.0 °F /  -12.2 °C 1015.8 in /  34395 hPa SSW 14.5 mph /  23.3 km/h 27.4 mph /  44.1 km/h 79 % 0.0 in /  0 mm
02:02 13.7 °F /  -10.2 °C 10.1 °F /  -12.2 °C 1015.8 in /  34395 hPa SSE 11.3 mph /  18.2 km/h 27.4 mph /  44.1 km/h 79 % 0.0 in /  0 mm
02:07 13.8 °F /  -10.1 °C 10.2 °F /  -12.1 °C 1015.5 in /  34384.8 hPa SW 17.7 mph /  28.5 km/h 27.4 mph /  44.1 km/h 79 % 0.0 in /  0 mm
02:12 13.8 °F /  -10.1 °C 10.2 °F /  -12.1 °C 1015.5 in /  34384.8 hPa SSW 19.3 mph /  31.1 km/h 27.4 mph /  44.1 km/h 79 % 0.0 in /  0 mm
02:22 13.9 °F /  -10.1 °C 10.3 °F /  -12.1 °C 1015.5 in /  34384.8 hPa SW 20.9 mph /  33.6 km/h 29.0 mph /  46.7 km/h 79 % 0.0 in /  0 mm
02:32 13.9 °F /  -10.1 °C 10.3 °F /  -12.1 °C 1015.1 in /  34371.3 hPa SSW 20.9 mph /  33.6 km/h 32.2 mph /  51.8 km/h 79 % 0.0 in /  0 mm
02:37 14.1 °F /  -9.9 °C 10.3 °F /  -12.1 °C 1015.1 in /  34371.3 hPa SW 19.3 mph /  31.1 km/h 32.2 mph /  51.8 km/h 78 % 0.0 in /  0 mm
02:42 14.1 °F /  -9.9 °C 10.3 °F /  -12.1 °C 1015.1 in /  34371.3 hPa SW 19.3 mph /  31.1 km/h 35.4 mph /  57 km/h 78 % 0.0 in /  0 mm
02:52 14.0 °F /  -10 °C 10.4 °F /  -12 °C 1015.1 in /  34371.3 hPa SSW 25.7 mph /  41.4 km/h 35.4 mph /  57 km/h 79 % 0.0 in /  0 mm
03:02 13.9 °F /  -10.1 °C 10.3 °F /  -12.1 °C 1014.8 in /  34361.1 hPa WSW 19.3 mph /  31.1 km/h 29.0 mph /  46.7 km/h 79 % 0.0 in /  0 mm
03:12 13.7 °F /  -10.2 °C 10.5 °F /  -11.9 °C 1014.8 in /  34361.1 hPa SSW 14.5 mph /  23.3 km/h 30.6 mph /  49.2 km/h 81 % 0.0 in /  0 mm
03:17 13.6 °F /  -10.2 °C 10.6 °F /  -11.9 °C 1014.8 in /  34361.1 hPa SW 14.5 mph /  23.3 km/h 30.6 mph /  49.2 km/h 82 % 0.0 in /  0 mm
03:22 13.6 °F /  -10.2 °C 10.6 °F /  -11.9 °C 1014.8 in /  34361.1 hPa South 12.9 mph /  20.8 km/h 30.6 mph /  49.2 km/h 82 % 0.0 in /  0 mm
03:32 13.6 °F /  -10.2 °C 10.8 °F /  -11.8 °C 1014.4 in /  34347.6 hPa SW 11.3 mph /  18.2 km/h 27.4 mph /  44.1 km/h 83 % 0.0 in /  0 mm
03:42 13.7 °F /  -10.2 °C 11.0 °F /  -11.7 °C 1014.4 in /  34347.6 hPa SSW 14.5 mph /  23.3 km/h 27.4 mph /  44.1 km/h 84 % 0.0 in /  0 mm
03:47 13.7 °F /  -10.2 °C 11.0 °F /  -11.7 °C 1014.4 in /  34347.6 hPa SW 16.1 mph /  25.9 km/h 27.4 mph /  44.1 km/h 84 % 0.0 in /  0 mm
03:52 13.9 °F /  -10.1 °C 11.1 °F /  -11.6 °C 1014.1 in /  34337.4 hPa SW 16.1 mph /  25.9 km/h 27.4 mph /  44.1 km/h 83 % 0.0 in /  0 mm
03:57 14.1 °F /  -9.9 °C 11.1 °F /  -11.6 °C 1013.8 in /  34327.3 hPa SSW 17.7 mph /  28.5 km/h 30.6 mph /  49.2 km/h 82 % 0.0 in /  0 mm
04:02 14.1 °F /  -9.9 °C 11.3 °F /  -11.5 °C 1013.8 in /  34327.3 hPa WSW 14.5 mph /  23.3 km/h 30.6 mph /  49.2 km/h 83 % 0.0 in /  0 mm
04:07 14.2 °F /  -9.9 °C 11.5 °F /  -11.4 °C 1013.8 in /  34327.3 hPa SW 22.5 mph /  36.2 km/h 30.6 mph /  49.2 km/h 84 % 0.0 in /  0 mm
04:12 14.1 °F /  -9.9 °C 11.6 °F /  -11.3 °C 1014.1 in /  34337.4 hPa SW 19.3 mph /  31.1 km/h 30.6 mph /  49.2 km/h 85 % 0.0 in /  0 mm
04:17 14.1 °F /  -9.9 °C 11.8 °F /  -11.2 °C 1014.1 in /  34337.4 hPa SSW 19.3 mph /  31.1 km/h 35.4 mph /  57 km/h 86 % 0.0 in /  0 mm
04:22 14.1 °F /  -9.9 °C 12.0 °F /  -11.1 °C 1014.1 in /  34337.4 hPa SW 14.5 mph /  23.3 km/h 35.4 mph /  57 km/h 87 % 0.0 in /  0 mm
04:27 13.9 °F /  -10.1 °C 11.9 °F /  -11.2 °C 1013.8 in /  34327.3 hPa SSW 27.4 mph /  44.1 km/h 35.4 mph /  57 km/h 88 % 0.0 in /  0 mm
04:32 13.7 °F /  -10.2 °C 12.1 °F /  -11.1 °C 1013.8 in /  34327.3 hPa WSW 16.1 mph /  25.9 km/h 40.2 mph /  64.7 km/h 90 % 0.0 in /  0 mm
04:37 13.6 °F /  -10.2 °C 12.2 °F /  -11 °C 1013.8 in /  34327.3 hPa SSW 9.7 mph /  15.6 km/h 40.2 mph /  64.7 km/h 91 % 0.0 in /  0 mm
04:42 13.5 °F /  -10.3 °C 12.2 °F /  -11 °C 1013.8 in /  34327.3 hPa SW 24.1 mph /  38.8 km/h 40.2 mph /  64.7 km/h 92 % 0.3 in /  7.62 mm
04:47 13.4 °F /  -10.3 °C 12.1 °F /  -11.1 °C 1013.8 in /  34327.3 hPa SW 16.1 mph /  25.9 km/h 29.0 mph /  46.7 km/h 92 % 0.3 in /  7.62 mm
04:52 13.5 °F /  -10.3 °C 12.4 °F /  -10.9 °C 1013.4 in /  34313.7 hPa SSW 14.5 mph /  23.3 km/h 29.0 mph /  46.7 km/h 93 % 0.3 in /  7.62 mm
04:57 13.5 °F /  -10.3 °C 12.4 °F /  -10.9 °C 1013.4 in /  34313.7 hPa SSW 11.3 mph /  18.2 km/h 29.0 mph /  46.7 km/h 93 % 0.3 in /  7.62 mm
05:02 13.5 °F /  -10.3 °C 12.4 °F /  -10.9 °C 1013.4 in /  34313.7 hPa SW 20.9 mph /  33.6 km/h 29.0 mph /  46.7 km/h 93 % 0.3 in /  7.62 mm
05:12 13.5 °F /  -10.3 °C 12.4 °F /  -10.9 °C 1013.4 in /  34313.7 hPa SSW 9.7 mph /  15.6 km/h 29.0 mph /  46.7 km/h 93 % 0.3 in /  7.62 mm
05:22 13.5 °F /  -10.3 °C 12.4 °F /  -10.9 °C 1013.4 in /  34313.7 hPa SSW 14.5 mph /  23.3 km/h 29.0 mph /  46.7 km/h 93 % 0.5 in /  12.7 mm
05:27 13.6 °F /  -10.2 °C 12.5 °F /  -10.8 °C 1013.4 in /  34313.7 hPa SW 14.5 mph /  23.3 km/h 29.0 mph /  46.7 km/h 93 % 0.5 in /  12.7 mm
05:32 13.6 °F /  -10.2 °C 12.5 °F /  -10.8 °C 1013.4 in /  34313.7 hPa WSW 12.9 mph /  20.8 km/h 29.0 mph /  46.7 km/h 93 % 0.5 in /  12.7 mm
05:37 13.6 °F /  -10.2 °C 12.5 °F /  -10.8 °C 1013.4 in /  34313.7 hPa SSW 16.1 mph /  25.9 km/h 25.7 mph /  41.4 km/h 93 % 0.8 in /  20.32 mm
05:42 13.7 °F /  -10.2 °C 12.4 °F /  -10.9 °C 1013.1 in /  34303.6 hPa SW 16.1 mph /  25.9 km/h 25.7 mph /  41.4 km/h 92 % 0.8 in /  20.32 mm
05:47 13.8 °F /  -10.1 °C 12.5 °F /  -10.8 °C 1013.1 in /  34303.6 hPa SW 12.9 mph /  20.8 km/h 30.6 mph /  49.2 km/h 92 % 0.5 in /  12.7 mm
05:52 13.9 °F /  -10.1 °C 12.6 °F /  -10.8 °C 1013.1 in /  34303.6 hPa SW 11.3 mph /  18.2 km/h 30.6 mph /  49.2 km/h 92 % 0.5 in /  12.7 mm
05:57 14.0 °F /  -10 °C 12.6 °F /  -10.8 °C 1013.1 in /  34303.6 hPa SW 20.9 mph /  33.6 km/h 30.6 mph /  49.2 km/h 91 % 0.5 in /  12.7 mm
06:02 14.2 °F /  -9.9 °C 12.8 °F /  -10.7 °C 1013.1 in /  34303.6 hPa SW 14.5 mph /  23.3 km/h 25.7 mph /  41.4 km/h 91 % 0.5 in /  12.7 mm
06:12 14.3 °F /  -9.8 °C 12.9 °F /  -10.6 °C 1013.1 in /  34303.6 hPa SW 12.9 mph /  20.8 km/h 27.4 mph /  44.1 km/h 91 % 0.5 in /  12.7 mm
06:17 14.3 °F /  -9.8 °C 12.9 °F /  -10.6 °C 1013.1 in /  34303.6 hPa WSW 14.5 mph /  23.3 km/h 30.6 mph /  49.2 km/h 91 % 0.5 in /  12.7 mm
06:22 14.3 °F /  -9.8 °C 13.0 °F /  -10.6 °C 1013.1 in /  34303.6 hPa SW 24.1 mph /  38.8 km/h 30.6 mph /  49.2 km/h 92 % 0.5 in /  12.7 mm
06:32 14.3 °F /  -9.8 °C 13.0 °F /  -10.6 °C 1013.1 in /  34303.6 hPa SW 19.3 mph /  31.1 km/h 35.4 mph /  57 km/h 92 % 0.5 in /  12.7 mm
06:37 14.3 °F /  -9.8 °C 13.2 °F /  -10.4 °C 1013.1 in /  34303.6 hPa SSW 25.7 mph /  41.4 km/h 35.4 mph /  57 km/h 93 % 0.5 in /  12.7 mm
06:42 14.3 °F /  -9.8 °C 13.2 °F /  -10.4 °C 1013.1 in /  34303.6 hPa SW 24.1 mph /  38.8 km/h 35.4 mph /  57 km/h 93 % 0.3 in /  7.62 mm
06:47 14.3 °F /  -9.8 °C 13.2 °F /  -10.4 °C 1013.1 in /  34303.6 hPa SW 11.3 mph /  18.2 km/h 35.4 mph /  57 km/h 93 % 0.3 in /  7.62 mm
06:52 14.4 °F /  -9.8 °C 13.3 °F /  -10.4 °C 1013.1 in /  34303.6 hPa WSW 22.5 mph /  36.2 km/h 33.8 mph /  54.4 km/h 93 % 0.5 in /  12.7 mm
06:57 14.3 °F /  -9.8 °C 13.3 °F /  -10.4 °C 1013.1 in /  34303.6 hPa SW 17.7 mph /  28.5 km/h 33.8 mph /  54.4 km/h 94 % 0.5 in /  12.7 mm
07:02 14.4 °F /  -9.8 °C 13.4 °F /  -10.3 °C 1013.1 in /  34303.6 hPa SSW 17.7 mph /  28.5 km/h 29.0 mph /  46.7 km/h 94 % 0.5 in /  12.7 mm
07:07 14.5 °F /  -9.7 °C 13.5 °F /  -10.3 °C 1013.4 in /  34313.7 hPa SW 24.1 mph /  38.8 km/h 29.0 mph /  46.7 km/h 94 % 0.5 in /  12.7 mm
07:12 14.6 °F /  -9.7 °C 13.6 °F /  -10.2 °C 1013.4 in /  34313.7 hPa SW 20.9 mph /  33.6 km/h 30.6 mph /  49.2 km/h 94 % 0.5 in /  12.7 mm
07:17 14.6 °F /  -9.7 °C 13.6 °F /  -10.2 °C 1013.4 in /  34313.7 hPa WSW 22.5 mph /  36.2 km/h 33.8 mph /  54.4 km/h 94 % 0.5 in /  12.7 mm
07:22 14.6 °F /  -9.7 °C 13.6 °F /  -10.2 °C 1013.4 in /  34313.7 hPa SW 19.3 mph /  31.1 km/h 33.8 mph /  54.4 km/h 94 % 0.5 in /  12.7 mm
07:32 14.7 °F /  -9.6 °C 13.9 °F /  -10.1 °C 1013.4 in /  34313.7 hPa SSW 17.7 mph /  28.5 km/h 33.8 mph /  54.4 km/h 95 % 0.5 in /  12.7 mm
07:37 14.7 °F /  -9.6 °C 13.9 °F /  -10.1 °C 1013.4 in /  34313.7 hPa West 17.7 mph /  28.5 km/h 30.6 mph /  49.2 km/h 95 % 0.5 in /  12.7 mm
07:42 14.8 °F /  -9.6 °C 13.8 °F /  -10.1 °C 1013.4 in /  34313.7 hPa SW 27.4 mph /  44.1 km/h 30.6 mph /  49.2 km/h 94 % 0.5 in /  12.7 mm
07:47 14.8 °F /  -9.6 °C 13.8 °F /  -10.1 °C 1013.4 in /  34313.7 hPa SW 16.1 mph /  25.9 km/h 35.4 mph /  57 km/h 94 % 0.5 in /  12.7 mm
07:52 14.8 °F /  -9.6 °C 13.8 °F /  -10.1 °C 1013.4 in /  34313.7 hPa SW 11.3 mph /  18.2 km/h 35.4 mph /  57 km/h 94 % 0.5 in /  12.7 mm
07:57 14.8 °F /  -9.6 °C 14.0 °F /  -10 °C 1013.4 in /  34313.7 hPa SW 19.3 mph /  31.1 km/h 35.4 mph /  57 km/h 95 % 0.3 in /  7.62 mm
08:02 14.8 °F /  -9.6 °C 14.0 °F /  -10 °C 1013.4 in /  34313.7 hPa SW 17.7 mph /  28.5 km/h 35.4 mph /  57 km/h 95 % 0.3 in /  7.62 mm
08:12 14.9 °F /  -9.5 °C 14.1 °F /  -9.9 °C 1013.8 in /  34327.3 hPa SW 12.9 mph /  20.8 km/h 33.8 mph /  54.4 km/h 95 % 0.3 in /  7.62 mm
08:17 14.9 °F /  -9.5 °C 14.1 °F /  -9.9 °C 1013.8 in /  34327.3 hPa SW 20.9 mph /  33.6 km/h 30.6 mph /  49.2 km/h 95 % 0.5 in /  12.7 mm
08:22 14.9 °F /  -9.5 °C 14.1 °F /  -9.9 °C 1013.8 in /  34327.3 hPa WSW 14.5 mph /  23.3 km/h 30.6 mph /  49.2 km/h 95 % 0.5 in /  12.7 mm
08:32 14.9 °F /  -9.5 °C 14.1 °F /  -9.9 °C 1013.8 in /  34327.3 hPa SW 25.7 mph /  41.4 km/h 29.0 mph /  46.7 km/h 95 % 0.3 in /  7.62 mm
08:42 15.1 °F /  -9.4 °C 14.5 °F /  -9.7 °C 1013.8 in /  34327.3 hPa SW 25.7 mph /  41.4 km/h 29.0 mph /  46.7 km/h 96 % 0.5 in /  12.7 mm
08:47 15.1 °F /  -9.4 °C 14.5 °F /  -9.7 °C 1013.8 in /  34327.3 hPa SW 20.9 mph /  33.6 km/h 30.6 mph /  49.2 km/h 96 % 0.5 in /  12.7 mm
08:52 15.2 °F /  -9.3 °C 14.6 °F /  -9.7 °C 1013.8 in /  34327.3 hPa SSW 9.7 mph /  15.6 km/h 30.6 mph /  49.2 km/h 96 % 0.5 in /  12.7 mm
08:57 15.2 °F /  -9.3 °C 14.6 °F /  -9.7 °C 1013.8 in /  34327.3 hPa SW 19.3 mph /  31.1 km/h 30.6 mph /  49.2 km/h 96 % 0.5 in /  12.7 mm
09:02 15.3 °F /  -9.3 °C 14.7 °F /  -9.6 °C 1013.8 in /  34327.3 hPa SW 14.5 mph /  23.3 km/h 29.0 mph /  46.7 km/h 96 % 0.5 in /  12.7 mm
09:12 15.4 °F /  -9.2 °C 14.8 °F /  -9.6 °C 1014.1 in /  34337.4 hPa SW 9.7 mph /  15.6 km/h 27.4 mph /  44.1 km/h 96 % 0.3 in /  7.62 mm
09:17 15.4 °F /  -9.2 °C 14.8 °F /  -9.6 °C 1014.1 in /  34337.4 hPa SSW 14.5 mph /  23.3 km/h 25.7 mph /  41.4 km/h 96 % 0.3 in /  7.62 mm
09:22 15.4 °F /  -9.2 °C 14.8 °F /  -9.6 °C 1014.1 in /  34337.4 hPa SW 17.7 mph /  28.5 km/h 25.7 mph /  41.4 km/h 96 % 0.3 in /  7.62 mm
09:32 15.6 °F /  -9.1 °C 15.0 °F /  -9.4 °C 1014.4 in /  34347.6 hPa SSW 16.1 mph /  25.9 km/h 25.7 mph /  41.4 km/h 96 % 0.3 in /  7.62 mm
09:42 15.7 °F /  -9.1 °C 15.1 °F /  -9.4 °C 1014.4 in /  34347.6 hPa SW 14.5 mph /  23.3 km/h 30.6 mph /  49.2 km/h 96 % 0.3 in /  7.62 mm
09:52 15.7 °F /  -9.1 °C 15.1 °F /  -9.4 °C 1014.4 in /  34347.6 hPa WSW 11.3 mph /  18.2 km/h 25.7 mph /  41.4 km/h 96 % 0.3 in /  7.62 mm
09:57 15.8 °F /  -9 °C 15.2 °F /  -9.3 °C 1014.4 in /  34347.6 hPa West 9.7 mph /  15.6 km/h 25.7 mph /  41.4 km/h 96 % 0.3 in /  7.62 mm
10:02 15.8 °F /  -9 °C 15.2 °F /  -9.3 °C 1014.4 in /  34347.6 hPa South 14.5 mph /  23.3 km/h 24.1 mph /  38.8 km/h 96 % 0.3 in /  7.62 mm
10:12 16.0 °F /  -8.9 °C 15.4 °F /  -9.2 °C 1014.4 in /  34347.6 hPa WSW 14.5 mph /  23.3 km/h 19.3 mph /  31.1 km/h 96 % 0.3 in /  7.62 mm
10:17 16.2 °F /  -8.8 °C 15.6 °F /  -9.1 °C 1014.4 in /  34347.6 hPa WSW 9.7 mph /  15.6 km/h 27.4 mph /  44.1 km/h 96 % 0.3 in /  7.62 mm
10:22 16.2 °F /  -8.8 °C 15.6 °F /  -9.1 °C 1014.4 in /  34347.6 hPa WSW 22.5 mph /  36.2 km/h 27.4 mph /  44.1 km/h 96 % 0.3 in /  7.62 mm
10:27 16.3 °F /  -8.7 °C 15.7 °F /  -9.1 °C 1014.4 in /  34347.6 hPa SW 22.5 mph /  36.2 km/h 27.4 mph /  44.1 km/h 96 % 0.0 in /  0 mm
10:32 16.4 °F /  -8.7 °C 15.8 °F /  -9 °C 1014.4 in /  34347.6 hPa SW 11.3 mph /  18.2 km/h 30.6 mph /  49.2 km/h 96 % 0.0 in /  0 mm
10:42 16.7 °F /  -8.5 °C 16.1 °F /  -8.8 °C 1014.4 in /  34347.6 hPa SW 19.3 mph /  31.1 km/h 27.4 mph /  44.1 km/h 96 % 0.0 in /  0 mm
10:47 16.7 °F /  -8.5 °C 16.1 °F /  -8.8 °C 1014.8 in /  34361.1 hPa SW 9.7 mph /  15.6 km/h 27.4 mph /  44.1 km/h 96 % 0.0 in /  0 mm
10:52 16.8 °F /  -8.4 °C 16.2 °F /  -8.8 °C 1014.8 in /  34361.1 hPa SSW 12.9 mph /  20.8 km/h 27.4 mph /  44.1 km/h 96 % 0.3 in /  7.62 mm
10:57 16.8 °F /  -8.4 °C 16.2 °F /  -8.8 °C 1014.8 in /  34361.1 hPa WSW 16.1 mph /  25.9 km/h 30.6 mph /  49.2 km/h 96 % 0.3 in /  7.62 mm
11:02 16.8 °F /  -8.4 °C 16.2 °F /  -8.8 °C 1014.8 in /  34361.1 hPa SW 9.7 mph /  15.6 km/h 30.6 mph /  49.2 km/h 96 % 0.3 in /  7.62 mm
11:12 16.8 °F /  -8.4 °C 16.2 °F /  -8.8 °C 1014.8 in /  34361.1 hPa SSW 12.9 mph /  20.8 km/h 30.6 mph /  49.2 km/h 96 % 0.5 in /  12.7 mm
11:17 16.8 °F /  -8.4 °C 16.2 °F /  -8.8 °C 1014.8 in /  34361.1 hPa SSW 9.7 mph /  15.6 km/h 29.0 mph /  46.7 km/h 96 % 0.5 in /  12.7 mm
11:22 16.9 °F /  -8.4 °C 16.3 °F /  -8.7 °C 1014.8 in /  34361.1 hPa SSW 12.9 mph /  20.8 km/h 29.0 mph /  46.7 km/h 96 % 0.8 in /  20.32 mm
11:32 17.1 °F /  -8.3 °C 16.5 °F /  -8.6 °C 1014.8 in /  34361.1 hPa SW 12.9 mph /  20.8 km/h 30.6 mph /  49.2 km/h 96 % 0.8 in /  20.32 mm
11:42 17.1 °F /  -8.3 °C 16.5 °F /  -8.6 °C 1014.4 in /  34347.6 hPa WSW 22.5 mph /  36.2 km/h 30.6 mph /  49.2 km/h 96 % 1.0 in /  25.4 mm
11:47 17.1 °F /  -8.3 °C 16.3 °F /  -8.7 °C 1014.4 in /  34347.6 hPa WSW 17.7 mph /  28.5 km/h 30.6 mph /  49.2 km/h 95 % 1.0 in /  25.4 mm
11:52 17.2 °F /  -8.2 °C 16.4 °F /  -8.7 °C 1014.4 in /  34347.6 hPa WSW 22.5 mph /  36.2 km/h 30.6 mph /  49.2 km/h 95 % 1.0 in /  25.4 mm
12:02 17.2 °F /  -8.2 °C 16.4 °F /  -8.7 °C 1014.4 in /  34347.6 hPa SW 14.5 mph /  23.3 km/h 30.6 mph /  49.2 km/h 95 % 1.3 in /  33.02 mm
12:12 17.2 °F /  -8.2 °C 16.6 °F /  -8.6 °C 1014.4 in /  34347.6 hPa SW 20.9 mph /  33.6 km/h 27.4 mph /  44.1 km/h 96 % 1.0 in /  25.4 mm
12:17 17.2 °F /  -8.2 °C 16.4 °F /  -8.7 °C 1014.4 in /  34347.6 hPa SW 14.5 mph /  23.3 km/h 33.8 mph /  54.4 km/h 95 % 1.0 in /  25.4 mm
12:22 17.3 °F /  -8.2 °C 16.5 °F /  -8.6 °C 1014.4 in /  34347.6 hPa SW 20.9 mph /  33.6 km/h 33.8 mph /  54.4 km/h 95 % 1.0 in /  25.4 mm
12:32 17.5 °F /  -8.1 °C 16.7 °F /  -8.5 °C 1014.4 in /  34347.6 hPa SW 16.1 mph /  25.9 km/h 33.8 mph /  54.4 km/h 95 % 0.8 in /  20.32 mm
12:42 17.7 °F /  -7.9 °C 16.7 °F /  -8.5 °C 1014.4 in /  34347.6 hPa WSW 11.3 mph /  18.2 km/h 37.0 mph /  59.5 km/h 94 % 0.5 in /  12.7 mm
12:52 17.9 °F /  -7.8 °C 16.8 °F /  -8.4 °C 1014.4 in /  34347.6 hPa SW 12.9 mph /  20.8 km/h 37.0 mph /  59.5 km/h 93 % 0.5 in /  12.7 mm
12:57 18.0 °F /  -7.8 °C 16.9 °F /  -8.4 °C 1014.4 in /  34347.6 hPa SW 22.5 mph /  36.2 km/h 33.8 mph /  54.4 km/h 93 % 0.5 in /  12.7 mm
13:02 18.1 °F /  -7.7 °C 16.9 °F /  -8.4 °C 1014.4 in /  34347.6 hPa WSW 24.1 mph /  38.8 km/h 33.8 mph /  54.4 km/h 93 % 0.5 in /  12.7 mm
13:12 18.3 °F /  -7.6 °C 17.0 °F /  -8.3 °C 1014.4 in /  34347.6 hPa SW 16.1 mph /  25.9 km/h 32.2 mph /  51.8 km/h 92 % 0.3 in /  7.62 mm
13:17 18.4 °F /  -7.6 °C 17.1 °F /  -8.3 °C 1014.4 in /  34347.6 hPa SSW 16.1 mph /  25.9 km/h 32.2 mph /  51.8 km/h 92 % 0.0 in /  0 mm
13:22 18.6 °F /  -7.4 °C 17.1 °F /  -8.3 °C 1014.4 in /  34347.6 hPa SSW 20.9 mph /  33.6 km/h 33.8 mph /  54.4 km/h 91 % 0.0 in /  0 mm
13:27 18.8 °F /  -7.3 °C 17.1 °F /  -8.3 °C 1014.4 in /  34347.6 hPa SW 17.7 mph /  28.5 km/h 33.8 mph /  54.4 km/h 90 % 0.0 in /  0 mm
13:32 19.0 °F /  -7.2 °C 17.1 °F /  -8.3 °C 1014.1 in /  34337.4 hPa SW 27.4 mph /  44.1 km/h 33.8 mph /  54.4 km/h 89 % 0.0 in /  0 mm
13:37 19.1 °F /  -7.2 °C 17.2 °F /  -8.2 °C 1014.4 in /  34347.6 hPa WSW 12.9 mph /  20.8 km/h 33.8 mph /  54.4 km/h 89 % 0.0 in /  0 mm
13:42 19.2 °F /  -7.1 °C 17.3 °F /  -8.2 °C 1014.1 in /  34337.4 hPa WSW 9.7 mph /  15.6 km/h 37.0 mph /  59.5 km/h 89 % 0.0 in /  0 mm
13:47 19.3 °F /  -7.1 °C 17.3 °F /  -8.2 °C 1014.4 in /  34347.6 hPa South 12.9 mph /  20.8 km/h 37.0 mph /  59.5 km/h 88 % 0.0 in /  0 mm
13:52 19.3 °F /  -7.1 °C 17.1 °F /  -8.3 °C 1014.4 in /  34347.6 hPa WSW 22.5 mph /  36.2 km/h 35.4 mph /  57 km/h 87 % 0.0 in /  0 mm
14:02 19.4 °F /  -7 °C 17.2 °F /  -8.2 °C 1014.1 in /  34337.4 hPa WSW 8.0 mph /  12.9 km/h 30.6 mph /  49.2 km/h 87 % 0.0 in /  0 mm
14:12 19.9 °F /  -6.7 °C 17.3 °F /  -8.2 °C 1013.8 in /  34327.3 hPa West 16.1 mph /  25.9 km/h 35.4 mph /  57 km/h 85 % 0.0 in /  0 mm
14:17 20.2 °F /  -6.6 °C 17.4 °F /  -8.1 °C 1013.8 in /  34327.3 hPa SSW 16.1 mph /  25.9 km/h 35.4 mph /  57 km/h 84 % 0.0 in /  0 mm
14:27 20.3 °F /  -6.5 °C 17.3 °F /  -8.2 °C 1013.8 in /  34327.3 hPa SW 19.3 mph /  31.1 km/h 35.4 mph /  57 km/h 83 % 0.0 in /  0 mm
14:32 20.3 °F /  -6.5 °C 17.1 °F /  -8.3 °C 1013.8 in /  34327.3 hPa SW 29.0 mph /  46.7 km/h 35.4 mph /  57 km/h 82 % 0.0 in /  0 mm
14:37 20.4 °F /  -6.4 °C 17.2 °F /  -8.2 °C 1013.8 in /  34327.3 hPa WSW 19.3 mph /  31.1 km/h 35.4 mph /  57 km/h 82 % 0.0 in /  0 mm
14:42 20.5 °F /  -6.4 °C 16.9 °F /  -8.4 °C 1013.8 in /  34327.3 hPa West 20.9 mph /  33.6 km/h 35.4 mph /  57 km/h 80 % 0.0 in /  0 mm
14:47 20.6 °F /  -6.3 °C 16.8 °F /  -8.4 °C 1013.8 in /  34327.3 hPa WSW 37.0 mph /  59.5 km/h 38.6 mph /  62.1 km/h 79 % 0.0 in /  0 mm
14:57 20.8 °F /  -6.2 °C 17.0 °F /  -8.3 °C 1013.8 in /  34327.3 hPa WSW 16.1 mph /  25.9 km/h 38.6 mph /  62.1 km/h 79 % 0.0 in /  0 mm
15:02 20.9 °F /  -6.2 °C 16.7 °F /  -8.5 °C 1013.4 in /  34313.7 hPa WSW 27.4 mph /  44.1 km/h 37.0 mph /  59.5 km/h 77 % 0.0 in /  0 mm
15:12 21.1 °F /  -6.1 °C 16.9 °F /  -8.4 °C 1013.4 in /  34313.7 hPa SW 16.1 mph /  25.9 km/h 38.6 mph /  62.1 km/h 77 % 0.0 in /  0 mm
15:17 21.1 °F /  -6.1 °C 16.7 °F /  -8.5 °C 1013.4 in /  34313.7 hPa WSW 30.6 mph /  49.2 km/h 38.6 mph /  62.1 km/h 76 % 0.0 in /  0 mm
15:22 21.1 °F /  -6.1 °C 16.7 °F /  -8.5 °C 1013.4 in /  34313.7 hPa SW 22.5 mph /  36.2 km/h 37.0 mph /  59.5 km/h 76 % 0.0 in /  0 mm
15:32 21.3 °F /  -5.9 °C 16.9 °F /  -8.4 °C 1013.1 in /  34303.6 hPa WSW 19.3 mph /  31.1 km/h 41.8 mph /  67.3 km/h 76 % 0.0 in /  0 mm
15:37 21.4 °F /  -5.9 °C 17.0 °F /  -8.3 °C 1013.1 in /  34303.6 hPa WNW 17.7 mph /  28.5 km/h 41.8 mph /  67.3 km/h 76 % 0.0 in /  0 mm
15:42 21.9 °F /  -5.6 °C 17.1 °F /  -8.3 °C 1012.8 in /  34293.4 hPa WSW 20.9 mph /  33.6 km/h 41.8 mph /  67.3 km/h 74 % 0.0 in /  0 mm
15:47 22.2 °F /  -5.4 °C 16.9 °F /  -8.4 °C 1012.8 in /  34293.4 hPa SW 25.7 mph /  41.4 km/h 51.5 mph /  82.9 km/h 72 % 0.0 in /  0 mm
15:52 22.3 °F /  -5.4 °C 16.8 °F /  -8.4 °C 1012.8 in /  34293.4 hPa WSW 25.7 mph /  41.4 km/h 51.5 mph /  82.9 km/h 71 % 0.0 in /  0 mm
15:57 22.3 °F /  -5.4 °C 16.6 °F /  -8.6 °C 1012.8 in /  34293.4 hPa SW 16.1 mph /  25.9 km/h 51.5 mph /  82.9 km/h 70 % 0.0 in /  0 mm
16:02 22.3 °F /  -5.4 °C 16.6 °F /  -8.6 °C 1012.8 in /  34293.4 hPa WSW 37.0 mph /  59.5 km/h 51.5 mph /  82.9 km/h 70 % 0.0 in /  0 mm
16:12 22.2 °F /  -5.4 °C 16.9 °F /  -8.4 °C 1012.8 in /  34293.4 hPa SW 22.5 mph /  36.2 km/h 49.9 mph /  80.3 km/h 72 % 0.0 in /  0 mm
16:17 22.2 °F /  -5.4 °C 16.9 °F /  -8.4 °C 1012.8 in /  34293.4 hPa SSE 17.7 mph /  28.5 km/h 49.9 mph /  80.3 km/h 72 % 0.0 in /  0 mm
16:22 22.1 °F /  -5.5 °C 16.8 °F /  -8.4 °C 1012.8 in /  34293.4 hPa WNW 14.5 mph /  23.3 km/h 41.8 mph /  67.3 km/h 72 % 0.0 in /  0 mm
16:27 22.0 °F /  -5.6 °C 16.9 °F /  -8.4 °C 1012.8 in /  34293.4 hPa SW 27.4 mph /  44.1 km/h 41.8 mph /  67.3 km/h 73 % 0.0 in /  0 mm
16:32 22.0 °F /  -5.6 °C 16.9 °F /  -8.4 °C 1012.8 in /  34293.4 hPa WSW 25.7 mph /  41.4 km/h 41.8 mph /  67.3 km/h 73 % 0.0 in /  0 mm
16:42 22.2 °F /  -5.4 °C 16.9 °F /  -8.4 °C 1012.8 in /  34293.4 hPa WSW 25.7 mph /  41.4 km/h 43.4 mph /  69.8 km/h 72 % 0.0 in /  0 mm
16:47 22.3 °F /  -5.4 °C 16.8 °F /  -8.4 °C 1012.8 in /  34293.4 hPa West 25.7 mph /  41.4 km/h 43.4 mph /  69.8 km/h 71 % 0.0 in /  0 mm
16:52 22.4 °F /  -5.3 °C 16.7 °F /  -8.5 °C 1012.8 in /  34293.4 hPa SW 29.0 mph /  46.7 km/h 43.4 mph /  69.8 km/h 70 % 0.0 in /  0 mm
16:57 22.4 °F /  -5.3 °C 16.7 °F /  -8.5 °C 1012.8 in /  34293.4 hPa WSW 17.7 mph /  28.5 km/h 43.4 mph /  69.8 km/h 70 % 0.0 in /  0 mm
17:02 22.4 °F /  -5.3 °C 16.9 °F /  -8.4 °C 1012.8 in /  34293.4 hPa WSW 33.8 mph /  54.4 km/h 43.4 mph /  69.8 km/h 71 % 0.0 in /  0 mm
17:12 22.5 °F /  -5.3 °C 16.1 °F /  -8.8 °C 1012.8 in /  34293.4 hPa WSW 43.4 mph /  69.8 km/h 43.4 mph /  69.8 km/h 67 % 0.0 in /  0 mm
17:17 22.6 °F /  -5.2 °C 16.2 °F /  -8.8 °C 1012.8 in /  34293.4 hPa SW 25.7 mph /  41.4 km/h 45.1 mph /  72.6 km/h 67 % 0.0 in /  0 mm
17:22 22.7 °F /  -5.2 °C 16.0 °F /  -8.9 °C 1012.8 in /  34293.4 hPa SSW 14.5 mph /  23.3 km/h 45.1 mph /  72.6 km/h 66 % 0.0 in /  0 mm
17:27 22.6 °F /  -5.2 °C 16.2 °F /  -8.8 °C 1012.8 in /  34293.4 hPa West 20.9 mph /  33.6 km/h 45.1 mph /  72.6 km/h 67 % 0.0 in /  0 mm
17:32 22.5 °F /  -5.3 °C 16.3 °F /  -8.7 °C 1012.8 in /  34293.4 hPa WSW 11.3 mph /  18.2 km/h 43.4 mph /  69.8 km/h 68 % 0.0 in /  0 mm
17:42 22.6 °F /  -5.2 °C 15.9 °F /  -8.9 °C 1012.4 in /  34279.9 hPa SW 20.9 mph /  33.6 km/h 43.4 mph /  69.8 km/h 66 % 0.0 in /  0 mm
17:47 22.6 °F /  -5.2 °C 15.9 °F /  -8.9 °C 1012.4 in /  34279.9 hPa SW 35.4 mph /  57 km/h 43.4 mph /  69.8 km/h 66 % 0.0 in /  0 mm
17:52 22.4 °F /  -5.3 °C 15.7 °F /  -9.1 °C 1012.1 in /  34269.7 hPa West 32.2 mph /  51.8 km/h 46.7 mph /  75.2 km/h 66 % 0.0 in /  0 mm
17:57 22.3 °F /  -5.4 °C 15.9 °F /  -8.9 °C 1012.4 in /  34279.9 hPa WSW 22.5 mph /  36.2 km/h 46.7 mph /  75.2 km/h 67 % 0.0 in /  0 mm
18:02 22.3 °F /  -5.4 °C 16.1 °F /  -8.8 °C 1012.4 in /  34279.9 hPa WSW 17.7 mph /  28.5 km/h 46.7 mph /  75.2 km/h 68 % 0.0 in /  0 mm
18:12 22.4 °F /  -5.3 °C 16.2 °F /  -8.8 °C 1012.1 in /  34269.7 hPa WSW 17.7 mph /  28.5 km/h 48.3 mph /  77.7 km/h 68 % 0.0 in /  0 mm
18:17 22.4 °F /  -5.3 °C 15.7 °F /  -9.1 °C 1012.1 in /  34269.7 hPa WSW 19.3 mph /  31.1 km/h 48.3 mph /  77.7 km/h 66 % 0.0 in /  0 mm
18:22 22.3 °F /  -5.4 °C 15.9 °F /  -8.9 °C 1012.1 in /  34269.7 hPa West 17.7 mph /  28.5 km/h 48.3 mph /  77.7 km/h 67 % 0.0 in /  0 mm
18:27 22.2 °F /  -5.4 °C 15.8 °F /  -9 °C 1011.7 in /  34256.2 hPa WSW 19.3 mph /  31.1 km/h 48.3 mph /  77.7 km/h 67 % 0.0 in /  0 mm
18:32 22.1 °F /  -5.5 °C 15.7 °F /  -9.1 °C 1011.7 in /  34256.2 hPa WSW 32.2 mph /  51.8 km/h 45.1 mph /  72.6 km/h 67 % 0.0 in /  0 mm
18:37 21.9 °F /  -5.6 °C 16.0 °F /  -8.9 °C 1011.7 in /  34256.2 hPa WSW 25.7 mph /  41.4 km/h 53.1 mph /  85.5 km/h 69 % 0.0 in /  0 mm
18:42 21.8 °F /  -5.7 °C 15.9 °F /  -8.9 °C 1011.7 in /  34256.2 hPa WSW 32.2 mph /  51.8 km/h 53.1 mph /  85.5 km/h 69 % 0.0 in /  0 mm
18:47 21.8 °F /  -5.7 °C 16.1 °F /  -8.8 °C 1011.7 in /  34256.2 hPa West 24.1 mph /  38.8 km/h 46.7 mph /  75.2 km/h 70 % 0.0 in /  0 mm
18:52 21.7 °F /  -5.7 °C 16.0 °F /  -8.9 °C 1011.7 in /  34256.2 hPa WSW 32.2 mph /  51.8 km/h 46.7 mph /  75.2 km/h 70 % 0.0 in /  0 mm
18:57 21.7 °F /  -5.7 °C 16.2 °F /  -8.8 °C 1011.7 in /  34256.2 hPa SW 22.5 mph /  36.2 km/h 49.9 mph /  80.3 km/h 71 % 0.0 in /  0 mm
19:02 21.6 °F /  -5.8 °C 15.9 °F /  -8.9 °C 1011.7 in /  34256.2 hPa SW 27.4 mph /  44.1 km/h 49.9 mph /  80.3 km/h 70 % 0.0 in /  0 mm
19:12 21.3 °F /  -5.9 °C 15.8 °F /  -9 °C 1012.1 in /  34269.7 hPa SW 27.4 mph /  44.1 km/h 40.2 mph /  64.7 km/h 71 % 0.0 in /  0 mm
19:17 21.3 °F /  -5.9 °C 15.8 °F /  -9 °C 1012.1 in /  34269.7 hPa WSW 38.6 mph /  62.1 km/h 45.1 mph /  72.6 km/h 71 % 0.0 in /  0 mm
19:22 21.2 °F /  -6 °C 15.5 °F /  -9.2 °C 1012.1 in /  34269.7 hPa SW 17.7 mph /  28.5 km/h 46.7 mph /  75.2 km/h 70 % 0.0 in /  0 mm
19:27 21.2 °F /  -6 °C 15.5 °F /  -9.2 °C 1012.1 in /  34269.7 hPa SW 41.8 mph /  67.3 km/h 56.3 mph /  90.6 km/h 70 % 0.0 in /  0 mm
19:32 21.1 °F /  -6.1 °C 15.6 °F /  -9.1 °C 1012.1 in /  34269.7 hPa South 16.1 mph /  25.9 km/h 56.3 mph /  90.6 km/h 71 % 0.0 in /  0 mm
19:42 21.0 °F /  -6.1 °C 15.5 °F /  -9.2 °C 1012.1 in /  34269.7 hPa SW 22.5 mph /  36.2 km/h 45.1 mph /  72.6 km/h 71 % 0.0 in /  0 mm
19:47 20.9 °F /  -6.2 °C 15.4 °F /  -9.2 °C 1012.1 in /  34269.7 hPa West 37.0 mph /  59.5 km/h 41.8 mph /  67.3 km/h 71 % 0.0 in /  0 mm
19:52 20.9 °F /  -6.2 °C 15.7 °F /  -9.1 °C 1012.1 in /  34269.7 hPa SW 12.9 mph /  20.8 km/h 48.3 mph /  77.7 km/h 72 % 0.0 in /  0 mm
20:02 20.8 °F /  -6.2 °C 15.8 °F /  -9 °C 1011.7 in /  34256.2 hPa SW 22.5 mph /  36.2 km/h 48.3 mph /  77.7 km/h 73 % 0.0 in /  0 mm
20:12 20.7 °F /  -6.3 °C 15.7 °F /  -9.1 °C 1011.7 in /  34256.2 hPa SW 38.6 mph /  62.1 km/h 48.3 mph /  77.7 km/h 73 % 0.0 in /  0 mm
20:17 20.7 °F /  -6.3 °C 15.7 °F /  -9.1 °C 1012.1 in /  34269.7 hPa SW 22.5 mph /  36.2 km/h 48.3 mph /  77.7 km/h 73 % 0.0 in /  0 mm
20:22 20.6 °F /  -6.3 °C 15.8 °F /  -9 °C 1012.1 in /  34269.7 hPa WSW 29.0 mph /  46.7 km/h 41.8 mph /  67.3 km/h 74 % 0.0 in /  0 mm
20:27 20.6 °F /  -6.3 °C 15.8 °F /  -9 °C 1012.1 in /  34269.7 hPa WSW 22.5 mph /  36.2 km/h 41.8 mph /  67.3 km/h 74 % 0.0 in /  0 mm
20:32 20.5 °F /  -6.4 °C 15.7 °F /  -9.1 °C 1011.7 in /  34256.2 hPa WSW 38.6 mph /  62.1 km/h 40.2 mph /  64.7 km/h 74 % 0.0 in /  0 mm
20:42 20.4 °F /  -6.4 °C 15.8 °F /  -9 °C 1011.7 in /  34256.2 hPa SSW 19.3 mph /  31.1 km/h 41.8 mph /  67.3 km/h 75 % 0.0 in /  0 mm
20:47 20.4 °F /  -6.4 °C 16.0 °F /  -8.9 °C 1012.1 in /  34269.7 hPa West 20.9 mph /  33.6 km/h 48.3 mph /  77.7 km/h 76 % 0.0 in /  0 mm
20:52 20.3 °F /  -6.5 °C 15.9 °F /  -8.9 °C 1011.7 in /  34256.2 hPa WSW 25.7 mph /  41.4 km/h 48.3 mph /  77.7 km/h 76 % 0.0 in /  0 mm
21:02 20.2 °F /  -6.6 °C 16.0 °F /  -8.9 °C 1012.1 in /  34269.7 hPa SW 12.9 mph /  20.8 km/h 43.4 mph /  69.8 km/h 77 % 0.0 in /  0 mm
21:12 20.1 °F /  -6.6 °C 15.9 °F /  -8.9 °C 1011.7 in /  34256.2 hPa SW 25.7 mph /  41.4 km/h 43.4 mph /  69.8 km/h 77 % 0.0 in /  0 mm
21:17 19.9 °F /  -6.7 °C 15.9 °F /  -8.9 °C 1012.1 in /  34269.7 hPa WSW 20.9 mph /  33.6 km/h 43.4 mph /  69.8 km/h 78 % 0.0 in /  0 mm
21:22 19.8 °F /  -6.8 °C 15.9 °F /  -8.9 °C 1012.1 in /  34269.7 hPa SW 16.1 mph /  25.9 km/h 43.4 mph /  69.8 km/h 78 % 0.0 in /  0 mm
21:32 19.7 °F /  -6.8 °C 16.0 °F /  -8.9 °C 1012.1 in /  34269.7 hPa SW 19.3 mph /  31.1 km/h 51.5 mph /  82.9 km/h 79 % 0.0 in /  0 mm
21:37 19.7 °F /  -6.8 °C 16.0 °F /  -8.9 °C 1012.1 in /  34269.7 hPa WSW 22.5 mph /  36.2 km/h 51.5 mph /  82.9 km/h 79 % 0.0 in /  0 mm
21:42 19.6 °F /  -6.9 °C 16.1 °F /  -8.8 °C 1011.7 in /  34256.2 hPa SW 27.4 mph /  44.1 km/h 51.5 mph /  82.9 km/h 80 % 0.0 in /  0 mm
21:47 19.6 °F /  -6.9 °C 16.1 °F /  -8.8 °C 1012.1 in /  34269.7 hPa WSW 19.3 mph /  31.1 km/h 49.9 mph /  80.3 km/h 80 % 0.0 in /  0 mm
21:57 19.4 °F /  -7 °C 16.1 °F /  -8.8 °C 1012.1 in /  34269.7 hPa SW 25.7 mph /  41.4 km/h 41.8 mph /  67.3 km/h 81 % 0.0 in /  0 mm
22:02 19.3 °F /  -7.1 °C 16.0 °F /  -8.9 °C 1012.1 in /  34269.7 hPa West 16.1 mph /  25.9 km/h 45.1 mph /  72.6 km/h 81 % 0.0 in /  0 mm
22:07 19.1 °F /  -7.2 °C 16.0 °F /  -8.9 °C 1012.1 in /  34269.7 hPa SW 17.7 mph /  28.5 km/h 45.1 mph /  72.6 km/h 82 % 0.0 in /  0 mm
22:12 18.9 °F /  -7.3 °C 15.9 °F /  -8.9 °C 1012.1 in /  34269.7 hPa WSW 19.3 mph /  31.1 km/h 45.1 mph /  72.6 km/h 83 % 0.0 in /  0 mm
22:17 18.8 °F /  -7.3 °C 16.0 °F /  -8.9 °C 1012.1 in /  34269.7 hPa SSE 25.7 mph /  41.4 km/h 38.6 mph /  62.1 km/h 84 % 0.0 in /  0 mm
22:22 18.8 °F /  -7.3 °C 16.0 °F /  -8.9 °C 1012.1 in /  34269.7 hPa WSW 29.0 mph /  46.7 km/h 41.8 mph /  67.3 km/h 84 % 0.0 in /  0 mm
22:32 18.7 °F /  -7.4 °C 16.1 °F /  -8.8 °C 1012.1 in /  34269.7 hPa South 11.3 mph /  18.2 km/h 43.4 mph /  69.8 km/h 85 % 0.0 in /  0 mm
22:42 18.5 °F /  -7.5 °C 15.9 °F /  -8.9 °C 1012.1 in /  34269.7 hPa WSW 20.9 mph /  33.6 km/h 45.1 mph /  72.6 km/h 85 % 0.0 in /  0 mm
22:47 18.5 °F /  -7.5 °C 15.9 °F /  -8.9 °C 1011.7 in /  34256.2 hPa SW 20.9 mph /  33.6 km/h 45.1 mph /  72.6 km/h 85 % 0.0 in /  0 mm
22:52 18.6 °F /  -7.4 °C 16.0 °F /  -8.9 °C 1011.7 in /  34256.2 hPa SW 17.7 mph /  28.5 km/h 41.8 mph /  67.3 km/h 85 % 0.0 in /  0 mm
22:57 18.4 °F /  -7.6 °C 16.0 °F /  -8.9 °C 1012.1 in /  34269.7 hPa SSW 12.9 mph /  20.8 km/h 41.8 mph /  67.3 km/h 86 % 0.0 in /  0 mm
23:02 18.3 °F /  -7.6 °C 15.7 °F /  -9.1 °C 1012.1 in /  34269.7 hPa WSW 37.0 mph /  59.5 km/h 41.8 mph /  67.3 km/h 85 % 0.0 in /  0 mm
23:12 18.5 °F /  -7.5 °C 15.6 °F /  -9.1 °C 1012.1 in /  34269.7 hPa WSW 37.0 mph /  59.5 km/h 41.8 mph /  67.3 km/h 83 % 0.0 in /  0 mm
23:17 18.5 °F /  -7.5 °C 15.4 °F /  -9.2 °C 1011.7 in /  34256.2 hPa SSW 20.9 mph /  33.6 km/h 49.9 mph /  80.3 km/h 82 % 0.0 in /  0 mm
23:22 18.4 °F /  -7.6 °C 15.1 °F /  -9.4 °C 1012.1 in /  34269.7 hPa WSW 33.8 mph /  54.4 km/h 49.9 mph /  80.3 km/h 81 % 0.0 in /  0 mm
23:27 18.4 °F /  -7.6 °C 14.9 °F /  -9.5 °C 1011.7 in /  34256.2 hPa WSW 16.1 mph /  25.9 km/h 49.9 mph /  80.3 km/h 80 % 0.0 in /  0 mm
23:32 18.3 °F /  -7.6 °C 14.8 °F /  -9.6 °C 1011.7 in /  34256.2 hPa SW 29.0 mph /  46.7 km/h 48.3 mph /  77.7 km/h 80 % 0.0 in /  0 mm
23:37 18.3 °F /  -7.6 °C 15.0 °F /  -9.4 °C 1011.7 in /  34256.2 hPa SW 17.7 mph /  28.5 km/h 56.3 mph /  90.6 km/h 81 % 0.0 in /  0 mm
23:42 18.2 °F /  -7.7 °C 15.1 °F /  -9.4 °C 1011.7 in /  34256.2 hPa WSW 20.9 mph /  33.6 km/h 56.3 mph /  90.6 km/h 82 % 0.0 in /  0 mm
23:47 18.1 °F /  -7.7 °C 15.2 °F /  -9.3 °C 1011.7 in /  34256.2 hPa SW 25.7 mph /  41.4 km/h 56.3 mph /  90.6 km/h 83 % 0.0 in /  0 mm
23:57 17.9 °F /  -7.8 °C 15.2 °F /  -9.3 °C 1011.4 in /  34246 hPa SSW 24.1 mph /  38.8 km/h 51.5 mph /  82.9 km/h 84 % 0.0 in /  0 mm
Meteo18
Compliments of Weather Underground - 4 mb

Script developed by  Jim McMurry - jmcmurry@mwt.net Adapted for the template by  Wim van der Kuil - Leuven-Template.eu

You find our weather info also at:

European Weather Network

Weather Underground

Equipment we use:

Weather-station
Davis Vue

Weather-program
Meteobridge

Weather-server
Raspberry PI 2 B+

Provider
1 and 1

Davis Vue

Meteobridge

Raspberry PI 2 B+

1 and 1